createdAt,value
2019-03-20T00:01:07.965Z,99.90
2019-03-20T00:04:14.952Z,99.90
2019-03-20T00:07:21.960Z,99.90
2019-03-20T00:10:47.829Z,99.90
2019-03-20T00:14:06.012Z,99.90
2019-03-20T00:17:25.042Z,99.90
2019-03-20T00:20:44.118Z,99.90
2019-03-20T00:24:03.018Z,99.90
2019-03-20T00:27:21.204Z,99.90
2019-03-20T00:30:39.649Z,99.90
2019-03-20T00:33:57.740Z,99.90
2019-03-20T00:37:17.095Z,99.90
2019-03-20T00:40:35.315Z,99.90
2019-03-20T00:43:54.151Z,99.90
2019-03-20T00:47:12.892Z,99.90
2019-03-20T00:50:30.948Z,99.90
2019-03-20T00:53:49.898Z,99.90
2019-03-20T00:57:08.741Z,99.90
2019-03-20T01:00:26.864Z,99.90
2019-03-20T01:03:45.243Z,99.90
2019-03-20T01:07:02.381Z,99.90
2019-03-20T01:14:09.618Z,99.90
2019-03-20T01:17:27.962Z,99.90
2019-03-20T01:20:46.048Z,99.90
2019-03-20T01:24:04.221Z,99.90
2019-03-20T01:27:22.616Z,99.90
2019-03-20T01:30:40.746Z,99.90
2019-03-20T01:33:59.627Z,99.90
2019-03-20T01:37:18.439Z,99.90
2019-03-20T01:40:36.882Z,99.90
2019-03-20T01:43:55.144Z,99.90
2019-03-20T01:47:13.201Z,99.90
2019-03-20T01:50:31.367Z,99.90
2019-03-20T01:53:49.509Z,99.90
2019-03-20T01:57:07.906Z,99.90
2019-03-20T02:00:25.924Z,99.90
2019-03-20T02:03:44.162Z,99.90
2019-03-20T02:07:02.533Z,99.90
2019-03-20T02:10:21.609Z,99.90
2019-03-20T02:13:40.488Z,99.90
2019-03-20T02:16:59.166Z,99.90
2019-03-20T02:20:17.918Z,99.90
2019-03-20T02:23:36.902Z,99.90
2019-03-20T02:26:55.801Z,99.90
2019-03-20T02:30:14.120Z,99.90
2019-03-20T02:33:32.328Z,99.90
2019-03-20T02:36:50.547Z,99.90
2019-03-20T02:40:09.525Z,99.90
2019-03-20T02:43:28.377Z,99.90
2019-03-20T02:46:46.545Z,99.90
2019-03-20T02:50:03.507Z,99.90
2019-03-20T02:53:29.395Z,99.90
2019-03-20T02:57:12.910Z,99.90
2019-03-20T03:04:27.589Z,99.90
2019-03-20T03:07:53.578Z,99.90
2019-03-20T03:11:37.088Z,99.90
2019-03-20T03:14:55.866Z,99.90
2019-03-20T03:18:13.961Z,99.90
2019-03-20T03:21:32.774Z,99.90
2019-03-20T03:24:51.118Z,99.90
2019-03-20T03:28:10.173Z,99.90
2019-03-20T03:31:29.013Z,99.90
2019-03-20T03:34:47.808Z,99.90
2019-03-20T03:38:06.732Z,99.90
2019-03-20T03:41:25.575Z,99.90
2019-03-20T03:44:44.426Z,99.90
2019-03-20T03:48:02.896Z,99.90
2019-03-20T03:51:21.684Z,99.90
2019-03-20T03:54:39.816Z,99.90
2019-03-20T03:57:58.008Z,99.90
2019-03-20T04:01:16.972Z,99.90
2019-03-20T04:04:35.811Z,99.90
2019-03-20T04:07:54.555Z,99.90
2019-03-20T04:11:12.773Z,99.90
2019-03-20T04:14:31.125Z,99.90
2019-03-20T04:17:49.393Z,99.90
2019-03-20T04:21:08.491Z,99.90
2019-03-20T04:24:26.889Z,99.90
2019-03-20T04:27:45.512Z,99.90
2019-03-20T04:31:03.695Z,99.90
2019-03-20T04:34:21.872Z,99.90
2019-03-20T04:37:40.268Z,99.90
2019-03-20T04:40:59.166Z,99.90
2019-03-20T04:44:16.252Z,99.90
2019-03-20T04:47:42.180Z,99.90
2019-03-20T04:55:13.899Z,99.90
2019-03-20T04:58:57.401Z,99.90
2019-03-20T05:02:24.880Z,99.90
2019-03-20T05:05:32.444Z,99.90
2019-03-20T05:08:39.763Z,99.90
2019-03-20T05:11:47.455Z,99.90
2019-03-20T05:14:54.581Z,99.90
2019-03-20T05:18:01.516Z,99.90
2019-03-20T05:21:08.444Z,99.90
2019-03-20T05:24:15.492Z,99.90
2019-03-20T05:27:22.379Z,99.90
2019-03-20T05:30:29.271Z,99.90
2019-03-20T05:33:36.307Z,99.90
2019-03-20T05:36:44.122Z,99.90
2019-03-20T05:39:51.110Z,99.90
2019-03-20T05:42:58.057Z,99.90
2019-03-20T05:46:05.491Z,99.90
2019-03-20T05:49:12.696Z,99.90
2019-03-20T05:52:19.667Z,99.90
2019-03-20T05:55:26.637Z,99.90
2019-03-20T05:58:33.887Z,99.90
2019-03-20T06:01:41.119Z,99.90
2019-03-20T06:04:48.098Z,99.90
2019-03-20T06:07:55.027Z,99.90
2019-03-20T06:11:02.190Z,99.90
2019-03-20T06:14:11.058Z,99.90
2019-03-20T06:17:18.029Z,99.90
2019-03-20T06:20:25.611Z,99.90
2019-03-20T06:23:32.604Z,99.90
2019-03-20T06:26:42.609Z,99.90
2019-03-20T06:29:49.629Z,99.90
2019-03-20T06:32:56.605Z,99.90
2019-03-20T06:36:04.184Z,99.90
2019-03-20T06:39:11.116Z,99.90
2019-03-20T06:42:18.258Z,99.90
2019-03-20T06:45:25.220Z,99.90
2019-03-20T06:48:32.491Z,99.90
2019-03-20T06:51:39.750Z,99.90
2019-03-20T06:54:46.780Z,99.90
2019-03-20T06:57:53.665Z,99.90
2019-03-20T07:01:09.717Z,99.90
2019-03-20T07:04:36.452Z,99.90
2019-03-20T07:07:44.443Z,99.90
2019-03-20T07:11:05.576Z,99.90
2019-03-20T07:14:12.524Z,99.90
2019-03-20T07:17:19.507Z,99.90
2019-03-20T07:20:29.355Z,99.90
2019-03-20T07:23:36.265Z,99.90
2019-03-20T07:26:43.509Z,99.90
2019-03-20T07:29:50.415Z,99.90
2019-03-20T07:32:57.339Z,99.90
2019-03-20T07:36:05.110Z,99.90
2019-03-20T07:39:12.228Z,99.90
2019-03-20T07:42:19.201Z,99.90
2019-03-20T07:45:26.107Z,99.90
2019-03-20T07:48:32.985Z,99.90
2019-03-20T07:51:41.676Z,99.90
2019-03-20T07:54:48.738Z,99.90
2019-03-20T07:57:55.697Z,99.90
2019-03-20T08:01:02.579Z,99.90
2019-03-20T08:04:09.503Z,99.90
2019-03-20T08:07:16.410Z,99.90
2019-03-20T08:10:23.313Z,99.90
2019-03-20T08:13:30.274Z,99.90
2019-03-20T08:16:37.255Z,99.90
2019-03-20T08:19:44.123Z,99.90
2019-03-20T08:22:51.058Z,99.90
2019-03-20T08:25:57.965Z,99.90
2019-03-20T08:29:04.923Z,99.90
2019-03-20T08:32:12.064Z,99.90
2019-03-20T08:35:19.092Z,99.90
2019-03-20T08:38:25.980Z,99.90
2019-03-20T08:41:32.953Z,99.90
2019-03-20T08:44:40.126Z,99.90
2019-03-20T08:47:47.127Z,99.90
2019-03-20T08:50:54.117Z,99.90
2019-03-20T08:54:01.073Z,99.90
2019-03-20T08:57:08.003Z,99.90
2019-03-20T09:00:16.843Z,99.90
2019-03-20T09:03:24.190Z,99.90
2019-03-20T09:06:31.147Z,99.90
2019-03-20T09:09:38.552Z,99.90
2019-03-20T09:12:45.531Z,99.80
2019-03-20T09:15:53.070Z,99.90
2019-03-20T09:19:00.665Z,99.90
2019-03-20T09:22:09.188Z,97.60
2019-03-20T09:25:17.526Z,94.90
2019-03-20T09:28:24.408Z,79.60
2019-03-20T09:31:31.448Z,78.60
2019-03-20T09:34:38.528Z,70.00
2019-03-20T09:37:51.771Z,64.00
2019-03-20T09:40:54.071Z,63.30
2019-03-20T09:44:01.061Z,63.60
2019-03-20T09:47:07.997Z,59.70
2019-03-20T09:50:16.540Z,57.90
2019-03-20T09:53:23.447Z,60.70
2019-03-20T09:56:30.406Z,59.80
2019-03-20T09:59:38.491Z,59.10
2019-03-20T10:02:48.702Z,57.40
2019-03-20T10:05:55.773Z,56.30
2019-03-20T10:09:02.853Z,54.70
2019-03-20T10:12:09.953Z,55.50
2019-03-20T10:15:18.028Z,55.70
2019-03-20T10:18:25.085Z,55.20
2019-03-20T10:21:32.150Z,55.60
2019-03-20T10:24:39.402Z,54.60
2019-03-20T10:27:46.695Z,54.10
2019-03-20T10:30:53.744Z,54.40
2019-03-20T10:34:00.799Z,56.50
2019-03-20T10:37:08.019Z,57.20
2019-03-20T10:40:17.172Z,57.60
2019-03-20T10:43:24.204Z,53.00
2019-03-20T10:46:31.230Z,54.70
2019-03-20T10:49:38.689Z,51.30
2019-03-20T10:52:45.637Z,52.00
2019-03-20T10:55:52.674Z,52.30
2019-03-20T10:58:59.740Z,51.90
2019-03-20T11:02:06.760Z,54.50
2019-03-20T11:46:43.506Z,57.50
2019-03-20T11:49:50.399Z,56.70
2019-03-20T11:52:57.359Z,55.80
2019-03-20T11:56:04.322Z,58.00
2019-03-20T11:59:11.301Z,59.10
2019-03-20T12:02:27.797Z,59.60
2019-03-20T12:05:26.702Z,61.70
2019-03-20T12:08:33.582Z,61.00
2019-03-20T12:11:46.054Z,64.20
2019-03-20T12:14:50.525Z,64.20
2019-03-20T12:17:57.484Z,61.50
2019-03-20T12:21:04.848Z,66.00
2019-03-20T12:24:11.817Z,64.20
2019-03-20T12:27:20.291Z,65.90
2019-03-20T12:30:29.945Z,65.80
2019-03-20T12:33:39.421Z,67.90
2019-03-20T12:36:46.358Z,69.60
2019-03-20T12:39:54.699Z,66.30
2019-03-20T12:43:01.760Z,66.10
2019-03-20T12:46:08.720Z,67.90
2019-03-20T12:49:17.913Z,69.90
2019-03-20T12:52:25.756Z,71.40
2019-03-20T12:55:32.684Z,72.30
2019-03-20T12:58:39.744Z,70.60
2019-03-20T13:01:46.581Z,68.00
2019-03-20T13:08:25.843Z,67.90
2019-03-20T13:11:32.709Z,67.60
2019-03-20T13:14:39.834Z,61.10
2019-03-20T13:17:46.765Z,58.80
2019-03-20T13:20:56.084Z,65.60
2019-03-20T13:24:10.787Z,63.00
2019-03-20T13:27:18.157Z,64.20
2019-03-20T13:30:49.035Z,66.20
2019-03-20T13:33:58.033Z,64.90
2019-03-20T13:37:05.072Z,63.20
2019-03-20T13:40:14.634Z,67.40
2019-03-20T13:43:31.059Z,66.50
2019-03-20T13:46:38.990Z,67.50
2019-03-20T13:49:47.066Z,67.80
2019-03-20T13:56:23.555Z,69.70
2019-03-20T13:59:30.497Z,71.70
2019-03-20T17:06:59.685Z,82.00
2019-03-20T17:10:10.888Z,83.10
2019-03-20T17:13:17.819Z,82.20
2019-03-20T17:16:24.798Z,83.00
2019-03-20T17:19:32.197Z,84.30
2019-03-20T17:22:42.081Z,85.60
2019-03-20T17:25:50.310Z,86.00
2019-03-20T17:28:57.183Z,87.30
2019-03-20T17:32:04.179Z,88.70
2019-03-20T17:35:11.364Z,90.00
2019-03-20T17:38:18.361Z,91.00
2019-03-20T17:41:25.410Z,92.90
2019-03-20T17:44:32.404Z,93.60
2019-03-20T17:47:40.090Z,95.70
2019-03-20T17:50:47.035Z,96.60
2019-03-20T17:53:54.658Z,98.90
2019-03-20T17:57:01.625Z,99.90
2019-03-20T18:00:11.728Z,99.90
2019-03-20T18:03:18.743Z,99.90
2019-03-20T18:06:25.646Z,99.90
2019-03-20T18:09:33.371Z,99.90
2019-03-20T18:12:41.274Z,99.90
2019-03-20T18:15:48.164Z,99.90
2019-03-20T18:18:55.057Z,99.90
2019-03-20T18:22:02.112Z,99.90
2019-03-20T18:25:10.984Z,99.90
2019-03-20T18:28:17.944Z,99.90
2019-03-20T18:31:24.904Z,99.90
2019-03-20T18:34:32.929Z,99.90
2019-03-20T18:37:40.219Z,99.90
2019-03-20T18:40:47.625Z,99.90
2019-03-20T18:43:55.233Z,99.90
2019-03-20T18:47:02.605Z,99.90
2019-03-20T18:50:10.588Z,99.90
2019-03-20T18:53:17.807Z,99.90
2019-03-20T18:56:24.937Z,99.90
2019-03-20T18:59:32.400Z,99.90
2019-03-20T19:02:44.905Z,99.90
2019-03-20T19:05:55.414Z,99.90
2019-03-20T19:09:02.371Z,99.90
2019-03-20T19:12:09.355Z,99.90
2019-03-20T19:15:16.526Z,99.90
2019-03-20T19:18:23.522Z,99.90
2019-03-20T19:21:30.812Z,99.90
2019-03-20T19:24:38.810Z,99.90
2019-03-20T19:27:46.338Z,99.90
2019-03-20T19:30:53.589Z,99.90
2019-03-20T19:34:01.132Z,99.90
2019-03-20T19:37:08.755Z,99.90
2019-03-20T19:40:16.278Z,99.90
2019-03-20T19:43:23.249Z,99.90
2019-03-20T19:46:30.159Z,99.90
2019-03-20T19:49:37.040Z,99.90
2019-03-20T19:52:44.064Z,99.90
2019-03-20T19:55:51.978Z,99.90
2019-03-20T19:58:59.316Z,99.90
2019-03-20T20:02:07.012Z,99.90
2019-03-20T20:05:15.994Z,99.90
2019-03-20T20:08:23.105Z,99.90
2019-03-20T20:11:30.574Z,99.90
2019-03-20T20:14:39.225Z,99.90
2019-03-20T20:17:47.152Z,99.90
2019-03-20T20:20:54.231Z,99.90
2019-03-20T20:24:01.111Z,99.90
2019-03-20T20:27:08.033Z,99.90
2019-03-20T20:30:16.710Z,99.90
2019-03-20T20:33:23.622Z,99.90
2019-03-20T20:36:30.651Z,99.90
2019-03-20T20:39:43.788Z,99.90
2019-03-20T20:42:50.755Z,99.90
2019-03-20T20:45:58.297Z,99.90
2019-03-20T20:49:05.385Z,99.90
2019-03-20T20:52:19.387Z,99.90
2019-03-20T20:55:43.685Z,99.90
2019-03-20T20:58:51.310Z,99.90
2019-03-20T21:02:12.074Z,99.90
2019-03-20T21:05:19.289Z,99.90
2019-03-20T21:08:26.204Z,99.90
2019-03-20T21:11:33.271Z,99.90
2019-03-20T21:14:42.177Z,99.90
2019-03-20T21:18:45.354Z,99.90
2019-03-20T21:22:19.151Z,99.90
2019-03-20T21:25:26.663Z,99.90
2019-03-20T21:29:16.413Z,99.90
2019-03-20T21:32:33.071Z,99.90
2019-03-20T21:36:24.578Z,99.90
2019-03-20T21:39:32.213Z,99.90
2019-03-20T21:43:15.342Z,99.90
2019-03-20T21:46:58.764Z,99.90
2019-03-20T21:51:01.236Z,99.90
2019-03-20T21:54:49.090Z,99.90
2019-03-20T21:58:33.761Z,99.90
2019-03-20T22:02:24.894Z,99.90
2019-03-20T22:06:07.699Z,99.90
2019-03-20T22:09:30.566Z,99.90
2019-03-20T22:13:40.245Z,99.90
2019-03-20T22:17:24.509Z,99.90
2019-03-20T22:20:59.086Z,99.90
2019-03-20T22:24:52.650Z,99.90
2019-03-20T22:28:56.394Z,99.90
2019-03-20T22:32:50.978Z,99.90
2019-03-20T22:36:15.556Z,99.90
2019-03-20T22:39:59.374Z,99.90
2019-03-20T22:43:30.106Z,99.90
2019-03-20T22:46:59.142Z,99.90
2019-03-20T22:50:27.143Z,99.90
2019-03-20T22:54:23.671Z,99.90
2019-03-20T22:58:04.158Z,99.90
2019-03-20T23:01:14.185Z,99.90
2019-03-20T23:04:32.068Z,99.90
2019-03-20T23:07:58.305Z,99.90
2019-03-20T23:19:24.494Z,99.90
2019-03-20T23:26:40.316Z,99.90
2019-03-20T23:34:14.234Z,99.90
2019-03-20T23:41:22.159Z,99.90
2019-03-20T23:44:40.404Z,99.90
2019-03-20T23:47:58.869Z,99.90
2019-03-20T23:51:16.960Z,99.90
2019-03-20T23:54:35.216Z,99.90
2019-03-20T23:57:52.506Z,99.90
